createdAt,value
2023-03-27T00:00:22.832Z,92.02
2023-03-27T00:01:22.831Z,91.81
2023-03-27T00:02:22.932Z,91.91
2023-03-27T00:03:22.924Z,91.30
2023-03-27T00:04:22.791Z,91.40
2023-03-27T00:05:22.777Z,91.85
2023-03-27T00:06:22.789Z,92.02
2023-03-27T00:07:27.772Z,91.81
2023-03-27T00:08:22.774Z,91.03
2023-03-27T00:09:22.733Z,91.44
2023-03-27T00:10:22.720Z,91.54
2023-03-27T00:11:22.707Z,90.82
2023-03-27T00:12:22.699Z,88.45
2023-03-27T00:13:22.687Z,87.66
2023-03-27T00:14:22.715Z,87.83
2023-03-27T00:15:22.694Z,88.80
2023-03-27T00:16:22.694Z,88.70
2023-03-27T00:17:22.642Z,88.18
2023-03-27T00:18:27.647Z,88.08
2023-03-27T00:19:22.638Z,87.87
2023-03-27T00:20:22.647Z,87.77
2023-03-27T00:21:22.640Z,87.77
2023-03-27T00:22:22.606Z,87.87
2023-03-27T00:23:22.577Z,87.66
2023-03-27T00:24:22.577Z,88.02
2023-03-27T00:25:22.548Z,87.71
2023-03-27T00:26:22.553Z,87.81
2023-03-27T00:27:22.523Z,87.46
2023-03-27T00:28:22.517Z,87.71
2023-03-27T00:29:27.557Z,87.08
2023-03-27T00:30:22.519Z,86.47
2023-03-27T00:31:22.493Z,86.57
2023-03-27T00:32:22.483Z,86.57
2023-03-27T00:33:22.464Z,86.26
2023-03-27T00:34:22.448Z,86.57
2023-03-27T00:35:22.493Z,86.36
2023-03-27T00:36:22.443Z,86.05
2023-03-27T00:37:22.411Z,86.36
2023-03-27T00:38:22.448Z,86.26
2023-03-27T00:39:22.386Z,86.26
2023-03-27T00:40:27.422Z,86.26
2023-03-27T00:41:22.437Z,86.05
2023-03-27T00:42:22.354Z,85.23
2023-03-27T00:43:22.354Z,85.95
2023-03-27T00:44:22.359Z,85.64
2023-03-27T00:45:22.363Z,85.85
2023-03-27T00:46:22.344Z,86.16
2023-03-27T00:47:22.298Z,85.75
2023-03-27T00:48:22.299Z,85.75
2023-03-27T00:49:22.280Z,85.85
2023-03-27T00:50:22.323Z,85.64
2023-03-27T00:51:27.274Z,85.33
2023-03-27T00:52:22.244Z,84.86
2023-03-27T00:53:22.232Z,84.20
2023-03-27T00:54:22.257Z,84.51
2023-03-27T00:55:22.219Z,84.72
2023-03-27T00:56:22.230Z,84.30
2023-03-27T00:57:22.190Z,84.44
2023-03-27T00:58:22.174Z,84.44
2023-03-27T00:59:22.168Z,84.44
2023-03-27T01:00:22.197Z,84.44
2023-03-27T01:01:22.203Z,84.55
2023-03-27T01:02:27.264Z,84.86
2023-03-27T01:03:22.292Z,84.23
2023-03-27T01:04:22.108Z,84.23
2023-03-27T01:05:22.109Z,84.23
2023-03-27T01:06:22.089Z,84.44
2023-03-27T01:07:22.068Z,84.55
2023-03-27T01:08:22.062Z,85.17
2023-03-27T01:09:22.105Z,84.96
2023-03-27T01:10:22.076Z,84.75
2023-03-27T01:11:22.025Z,85.27
2023-03-27T01:12:22.013Z,85.06
2023-03-27T01:13:27.038Z,84.44
2023-03-27T01:14:22.010Z,83.41
2023-03-27T01:15:22.049Z,83.83
2023-03-27T01:16:21.985Z,84.44
2023-03-27T01:17:22.014Z,83.72
2023-03-27T01:18:21.949Z,83.41
2023-03-27T01:19:21.931Z,84.23
2023-03-27T01:20:21.930Z,84.86
2023-03-27T01:21:21.908Z,83.72
2023-03-27T01:22:21.944Z,84.03
2023-03-27T01:23:35.961Z,83.62
2023-03-27T01:24:26.909Z,83.41
2023-03-27T01:25:21.871Z,83.62
2023-03-27T01:26:35.426Z,84.34
2023-03-27T01:27:22.840Z,84.75
2023-03-27T01:28:21.888Z,84.34
2023-03-27T01:29:21.822Z,84.34
2023-03-27T01:30:21.824Z,83.00
2023-03-27T01:31:21.821Z,82.38
2023-03-27T01:32:21.952Z,81.14
2023-03-27T01:33:21.777Z,81.45
2023-03-27T01:34:21.803Z,81.45
2023-03-27T01:35:26.821Z,81.24
2023-03-27T01:36:21.740Z,81.04
2023-03-27T01:37:21.730Z,79.38
2023-03-27T01:38:21.714Z,79.38
2023-03-27T01:39:21.711Z,78.87
2023-03-27T01:40:21.734Z,79.18
2023-03-27T01:41:21.729Z,77.84
2023-03-27T01:42:21.704Z,78.18
2023-03-27T01:43:21.661Z,77.77
2023-03-27T01:44:21.650Z,78.08
2023-03-27T01:45:21.642Z,78.14
2023-03-27T01:46:26.708Z,77.15
2023-03-27T01:47:21.709Z,77.01
2023-03-27T01:48:21.604Z,77.15
2023-03-27T01:49:21.593Z,77.04
2023-03-27T01:50:21.585Z,77.04
2023-03-27T01:51:21.582Z,77.15
2023-03-27T01:52:21.583Z,77.25
2023-03-27T01:53:21.549Z,77.25
2023-03-27T01:54:21.545Z,76.73
2023-03-27T01:55:21.536Z,76.84
2023-03-27T01:56:21.528Z,76.01
2023-03-27T01:57:26.548Z,76.12
2023-03-27T01:58:21.542Z,76.32
2023-03-27T01:59:21.486Z,77.29
2023-03-27T02:00:21.474Z,77.15
2023-03-27T02:01:21.546Z,75.32
2023-03-27T02:02:21.511Z,73.98
2023-03-27T02:03:21.433Z,73.77
2023-03-27T02:04:21.449Z,75.12
2023-03-27T02:05:21.452Z,74.12
2023-03-27T02:06:21.428Z,74.12
2023-03-27T02:07:21.406Z,75.15
2023-03-27T02:08:26.403Z,74.15
2023-03-27T02:09:21.365Z,74.36
2023-03-27T02:10:21.356Z,73.54
2023-03-27T02:11:21.375Z,74.05
2023-03-27T02:12:21.339Z,74.26
2023-03-27T02:13:21.353Z,73.84
2023-03-27T02:14:21.326Z,73.43
2023-03-27T02:15:23.260Z,74.67
2023-03-27T02:16:21.337Z,73.88
2023-03-27T02:17:21.331Z,71.91
2023-03-27T02:18:21.268Z,72.43
2023-03-27T02:19:26.291Z,71.91
2023-03-27T02:20:21.250Z,73.15
2023-03-27T02:21:21.245Z,73.36
2023-03-27T02:22:37.648Z,72.02
2023-03-27T02:23:21.240Z,71.70
2023-03-27T02:24:21.197Z,71.91
2023-03-27T02:25:21.191Z,72.33
2023-03-27T02:26:21.183Z,72.25
2023-03-27T02:27:21.170Z,72.43
2023-03-27T02:28:21.162Z,72.15
2023-03-27T02:29:21.179Z,72.25
2023-03-27T02:30:26.159Z,71.63
2023-03-27T02:31:34.023Z,72.25
2023-03-27T02:32:21.164Z,71.84
2023-03-27T02:33:21.165Z,72.15
2023-03-27T02:34:21.089Z,71.84
2023-03-27T02:35:21.157Z,72.15
2023-03-27T02:36:21.097Z,71.73
2023-03-27T02:37:21.057Z,71.36
2023-03-27T02:38:21.040Z,71.73
2023-03-27T02:39:21.031Z,71.84
2023-03-27T02:40:21.018Z,71.73
2023-03-27T02:41:26.189Z,71.84
2023-03-27T02:42:20.993Z,71.77
2023-03-27T02:43:20.990Z,71.98
2023-03-27T02:44:20.987Z,71.73
2023-03-27T02:45:20.995Z,71.46
2023-03-27T02:46:21.017Z,71.04
2023-03-27T02:47:20.987Z,71.15
2023-03-27T02:48:20.934Z,71.56
2023-03-27T02:49:20.921Z,70.84
2023-03-27T02:50:20.911Z,71.70
2023-03-27T02:51:20.905Z,71.70
2023-03-27T02:52:25.927Z,70.87
2023-03-27T02:53:20.888Z,71.59
2023-03-27T02:54:20.886Z,71.08
2023-03-27T02:55:20.855Z,70.76
2023-03-27T02:56:20.849Z,70.76
2023-03-27T02:57:21.822Z,71.08
2023-03-27T02:58:20.830Z,72.01
2023-03-27T02:59:20.813Z,71.73
2023-03-27T03:00:20.904Z,72.05
2023-03-27T03:01:20.856Z,71.94
2023-03-27T03:02:20.837Z,71.73
2023-03-27T03:03:25.824Z,71.94
2023-03-27T03:04:20.767Z,71.84
2023-03-27T03:05:20.784Z,71.73
2023-03-27T03:06:20.778Z,71.63
2023-03-27T03:07:20.744Z,72.46
2023-03-27T03:08:20.714Z,72.46
2023-03-27T03:09:20.700Z,71.84
2023-03-27T03:10:20.698Z,71.84
2023-03-27T03:11:20.676Z,71.73
2023-03-27T03:12:20.706Z,71.73
2023-03-27T03:13:20.655Z,71.73
2023-03-27T03:14:25.673Z,71.66
2023-03-27T03:15:20.633Z,72.28
2023-03-27T03:16:20.630Z,71.84
2023-03-27T03:17:20.638Z,72.28
2023-03-27T03:18:20.657Z,71.84
2023-03-27T03:19:20.586Z,72.28
2023-03-27T03:20:20.571Z,73.11
2023-03-27T03:21:20.560Z,72.39
2023-03-27T03:22:20.548Z,72.18
2023-03-27T03:23:20.549Z,72.28
2023-03-27T03:24:20.551Z,73.11
2023-03-27T03:25:25.539Z,72.18
2023-03-27T03:26:20.505Z,71.66
2023-03-27T03:27:20.503Z,71.97
2023-03-27T03:28:20.491Z,71.87
2023-03-27T03:29:20.473Z,72.08
2023-03-27T03:30:20.508Z,72.28
2023-03-27T03:31:20.521Z,71.87
2023-03-27T03:32:20.433Z,71.97
2023-03-27T03:33:20.465Z,71.66
2023-03-27T03:34:20.415Z,71.87
2023-03-27T03:35:20.406Z,72.08
2023-03-27T03:36:25.442Z,71.25
2023-03-27T03:37:20.395Z,72.01
2023-03-27T03:38:20.374Z,72.01
2023-03-27T03:39:20.387Z,71.80
2023-03-27T03:40:20.368Z,71.77
2023-03-27T03:41:20.347Z,72.22
2023-03-27T03:42:22.618Z,71.97
2023-03-27T03:43:20.323Z,72.01
2023-03-27T03:44:20.297Z,71.91
2023-03-27T03:45:20.297Z,73.25
2023-03-27T03:46:20.312Z,72.32
2023-03-27T03:47:25.336Z,71.80
2023-03-27T03:48:20.301Z,71.91
2023-03-27T03:49:20.286Z,72.11
2023-03-27T03:50:20.235Z,71.91
2023-03-27T03:51:20.222Z,72.66
2023-03-27T03:52:20.253Z,72.32
2023-03-27T03:53:20.207Z,73.25
2023-03-27T03:54:20.207Z,72.42
2023-03-27T03:55:20.182Z,72.42
2023-03-27T03:56:20.163Z,74.08
2023-03-27T03:57:20.154Z,73.46
2023-03-27T03:58:34.398Z,72.32
2023-03-27T03:59:20.133Z,72.22
2023-03-27T04:00:20.118Z,72.42
2023-03-27T04:01:20.148Z,73.67
2023-03-27T04:02:20.164Z,72.84
2023-03-27T04:03:20.211Z,73.57
2023-03-27T04:04:20.076Z,73.36
2023-03-27T04:05:20.189Z,72.84
2023-03-27T04:06:20.621Z,73.05
2023-03-27T04:07:20.107Z,74.11
2023-03-27T04:08:20.034Z,73.67
2023-03-27T04:09:25.051Z,73.46
2023-03-27T04:10:20.005Z,74.32
2023-03-27T04:11:19.996Z,74.08
2023-03-27T04:12:19.982Z,73.77
2023-03-27T04:13:20.031Z,73.36
2023-03-27T04:14:19.958Z,73.05
2023-03-27T04:15:19.948Z,74.60
2023-03-27T04:16:19.992Z,74.22
2023-03-27T04:17:19.945Z,73.60
2023-03-27T04:18:20.065Z,74.11
2023-03-27T04:19:20.006Z,73.70
2023-03-27T04:20:24.924Z,73.49
2023-03-27T04:21:19.882Z,74.22
2023-03-27T04:22:19.864Z,74.19
2023-03-27T04:23:19.881Z,73.70
2023-03-27T04:24:19.844Z,73.49
2023-03-27T04:25:19.913Z,73.49
2023-03-27T04:26:19.885Z,73.80
2023-03-27T04:27:19.814Z,74.95
2023-03-27T04:28:19.829Z,74.01
2023-03-27T04:29:19.788Z,72.14
2023-03-27T04:30:19.780Z,73.39
2023-03-27T04:31:24.899Z,73.39
2023-03-27T04:32:19.755Z,73.49
2023-03-27T04:33:19.758Z,73.80
2023-03-27T04:34:19.736Z,73.39
2023-03-27T04:35:19.732Z,73.08
2023-03-27T04:36:19.812Z,73.08
2023-03-27T04:37:23.158Z,73.70
2023-03-27T04:38:19.719Z,73.70
2023-03-27T04:39:19.692Z,73.80
2023-03-27T04:40:19.687Z,73.49
2023-03-27T04:41:19.698Z,73.70
2023-03-27T04:42:24.675Z,72.87
2023-03-27T04:43:19.732Z,73.80
2023-03-27T04:44:19.624Z,74.32
2023-03-27T04:45:19.625Z,73.53
2023-03-27T04:46:19.636Z,73.39
2023-03-27T04:47:19.594Z,73.63
2023-03-27T04:48:19.582Z,73.63
2023-03-27T04:49:19.645Z,73.74
2023-03-27T04:50:19.569Z,73.63
2023-03-27T04:51:19.563Z,73.39
2023-03-27T04:52:19.565Z,73.63
2023-03-27T04:53:24.554Z,73.22
2023-03-27T04:54:19.528Z,73.53
2023-03-27T04:55:19.590Z,74.26
2023-03-27T04:56:19.500Z,73.43
2023-03-27T04:57:19.503Z,73.84
2023-03-27T04:58:19.527Z,73.00
2023-03-27T04:59:19.474Z,73.43
2023-03-27T05:00:19.611Z,73.32
2023-03-27T05:01:19.483Z,73.63
2023-03-27T05:02:19.427Z,71.97
2023-03-27T05:03:19.506Z,73.22
2023-03-27T05:04:24.447Z,73.53
2023-03-27T05:05:19.398Z,73.43
2023-03-27T05:06:19.380Z,73.63
2023-03-27T05:07:19.376Z,73.63
2023-03-27T05:08:19.389Z,73.63
2023-03-27T05:09:19.393Z,74.26
2023-03-27T05:10:21.828Z,73.43
2023-03-27T05:11:19.325Z,73.53
2023-03-27T05:12:19.346Z,74.26
2023-03-27T05:13:19.308Z,73.66
2023-03-27T05:14:19.329Z,73.94
2023-03-27T05:15:24.312Z,74.26
2023-03-27T05:16:19.397Z,74.29
2023-03-27T05:17:19.276Z,74.05
2023-03-27T05:18:19.246Z,74.26
2023-03-27T05:19:19.254Z,74.05
2023-03-27T05:20:19.233Z,73.84
2023-03-27T05:21:19.214Z,73.94
2023-03-27T05:22:19.221Z,74.39
2023-03-27T05:23:19.190Z,73.84
2023-03-27T05:24:19.212Z,74.26
2023-03-27T05:25:19.184Z,74.15
2023-03-27T05:26:24.179Z,73.94
2023-03-27T05:27:19.156Z,74.15
2023-03-27T05:28:19.178Z,73.66
2023-03-27T05:29:19.148Z,73.84
2023-03-27T05:30:19.113Z,74.26
2023-03-27T05:31:19.143Z,73.43
2023-03-27T05:32:19.092Z,73.87
2023-03-27T05:33:19.087Z,73.74
2023-03-27T05:34:19.143Z,74.05
2023-03-27T05:35:19.098Z,73.97
2023-03-27T05:36:19.065Z,74.05
2023-03-27T05:37:24.928Z,73.84
2023-03-27T05:38:19.025Z,73.74
2023-03-27T05:39:19.022Z,73.63
2023-03-27T05:40:19.027Z,74.15
2023-03-27T05:41:18.995Z,74.39
2023-03-27T05:42:18.984Z,74.26
2023-03-27T05:43:18.968Z,74.15
2023-03-27T05:44:18.972Z,73.74
2023-03-27T05:45:18.948Z,74.67
2023-03-27T05:46:21.245Z,74.15
2023-03-27T05:47:18.933Z,74.26
2023-03-27T05:48:23.936Z,74.26
2023-03-27T05:49:18.926Z,74.36
2023-03-27T05:50:18.885Z,74.15
2023-03-27T05:51:18.876Z,74.26
2023-03-27T05:52:18.898Z,73.84
2023-03-27T05:53:18.864Z,73.74
2023-03-27T05:54:18.854Z,74.05
2023-03-27T05:55:18.831Z,73.94
2023-03-27T05:56:18.850Z,74.36
2023-03-27T05:57:18.887Z,74.46
2023-03-27T05:58:18.857Z,73.80
2023-03-27T05:59:23.823Z,74.05
2023-03-27T06:00:18.781Z,73.43
2023-03-27T06:01:18.765Z,73.60
2023-03-27T06:02:21.271Z,72.90
2023-03-27T06:03:18.912Z,72.17
2023-03-27T06:04:18.834Z,73.43
2023-03-27T06:05:18.722Z,73.43
2023-03-27T06:06:18.709Z,72.97
2023-03-27T06:07:18.710Z,73.18
2023-03-27T06:08:18.690Z,73.70
2023-03-27T06:09:18.690Z,74.43
2023-03-27T06:10:23.738Z,73.49
2023-03-27T06:11:18.655Z,73.49
2023-03-27T06:12:18.670Z,73.28
2023-03-27T06:13:18.648Z,73.49
2023-03-27T06:14:18.629Z,73.39
2023-03-27T06:15:18.612Z,73.28
2023-03-27T06:16:18.661Z,73.28
2023-03-27T06:17:18.590Z,73.39
2023-03-27T06:18:18.577Z,73.25
2023-03-27T06:19:18.573Z,72.32
2023-03-27T06:20:18.552Z,72.32
2023-03-27T06:21:23.565Z,73.57
2023-03-27T06:22:18.582Z,72.84
2023-03-27T06:23:18.550Z,72.42
2023-03-27T06:24:18.526Z,72.22
2023-03-27T06:25:18.497Z,72.32
2023-03-27T06:26:18.487Z,72.32
2023-03-27T06:27:18.482Z,72.32
2023-03-27T06:28:18.485Z,72.39
2023-03-27T06:29:18.519Z,72.01
2023-03-27T06:30:18.462Z,72.08
2023-03-27T06:31:18.454Z,71.66
2023-03-27T06:32:23.912Z,72.08
2023-03-27T06:33:18.409Z,72.08
2023-03-27T06:34:18.413Z,71.77
2023-03-27T06:35:18.469Z,71.14
2023-03-27T06:36:18.423Z,70.70
2023-03-27T06:37:18.363Z,71.42
2023-03-27T06:38:18.352Z,70.59
2023-03-27T06:39:18.356Z,69.87
2023-03-27T06:40:18.334Z,69.63
2023-03-27T06:41:18.348Z,69.84
2023-03-27T06:42:18.365Z,69.53
2023-03-27T06:43:23.334Z,69.94
2023-03-27T06:44:18.300Z,70.15
2023-03-27T06:45:18.276Z,69.73
2023-03-27T06:46:18.283Z,69.11
2023-03-27T06:47:18.344Z,70.04
2023-03-27T06:48:21.499Z,70.21
2023-03-27T06:49:18.239Z,69.32
2023-03-27T06:50:18.229Z,70.11
2023-03-27T06:51:18.204Z,69.49
2023-03-27T06:52:18.197Z,69.29
2023-03-27T06:54:23.206Z,70.15
2023-03-27T06:55:18.167Z,69.94
2023-03-27T06:56:18.161Z,69.01
2023-03-27T06:57:18.212Z,69.21
2023-03-27T06:58:18.128Z,69.53
2023-03-27T06:59:18.178Z,69.94
2023-03-27T07:00:18.145Z,70.70
2023-03-27T07:01:18.091Z,71.08
2023-03-27T07:02:18.080Z,69.53
2023-03-27T07:03:18.306Z,69.70
2023-03-27T07:04:18.066Z,69.39
2023-03-27T07:05:23.158Z,69.49
2023-03-27T07:06:18.034Z,69.49
2023-03-27T07:07:18.022Z,68.77
2023-03-27T07:08:24.349Z,68.77
2023-03-27T07:09:19.032Z,68.98
2023-03-27T07:10:17.990Z,69.49
2023-03-27T07:11:18.520Z,68.74
2023-03-27T07:12:17.982Z,69.18
2023-03-27T07:13:17.955Z,68.94
2023-03-27T07:14:17.939Z,68.74
2023-03-27T07:15:17.975Z,68.94
2023-03-27T07:16:22.987Z,68.74
2023-03-27T07:17:17.927Z,68.94
2023-03-27T07:18:17.990Z,69.18
2023-03-27T07:19:17.881Z,69.25
2023-03-27T07:20:17.901Z,68.53
2023-03-27T07:21:17.860Z,68.22
2023-03-27T07:22:17.908Z,67.80
2023-03-27T07:23:17.854Z,67.80
2023-03-27T07:24:17.856Z,67.60
2023-03-27T07:25:17.823Z,68.53
2023-03-27T07:26:17.806Z,68.01
2023-03-27T07:27:22.836Z,68.49
2023-03-27T07:28:17.781Z,67.98
2023-03-27T07:29:17.798Z,67.80
2023-03-27T07:30:17.782Z,67.57
2023-03-27T07:31:29.898Z,67.57
2023-03-27T07:32:29.797Z,67.57
2023-03-27T07:33:17.767Z,66.74
2023-03-27T07:34:17.913Z,67.36
2023-03-27T07:35:17.821Z,68.29
2023-03-27T07:36:17.706Z,66.84
2023-03-27T07:37:17.676Z,66.42
2023-03-27T07:38:22.704Z,67.15
2023-03-27T07:39:17.671Z,66.09
2023-03-27T07:40:19.927Z,66.02
2023-03-27T07:41:17.723Z,67.12
2023-03-27T07:42:17.633Z,65.78
2023-03-27T07:43:17.661Z,66.16
2023-03-27T07:44:17.607Z,66.16
2023-03-27T07:45:17.709Z,65.95
2023-03-27T07:46:17.650Z,65.51
2023-03-27T07:47:17.611Z,65.58
2023-03-27T07:48:17.566Z,64.42
2023-03-27T07:49:39.685Z,62.50
2023-03-27T07:50:17.562Z,61.61
2023-03-27T07:51:17.526Z,59.91
2023-03-27T07:52:17.521Z,58.45
2023-03-27T07:53:33.300Z,58.01
2023-03-27T07:54:17.498Z,57.08
2023-03-27T07:55:17.500Z,56.54
2023-03-27T07:56:17.467Z,56.18
2023-03-27T07:57:17.510Z,54.00
2023-03-27T07:58:17.543Z,54.21
2023-03-27T07:59:17.466Z,53.46
2023-03-27T08:00:22.607Z,53.33
2023-03-27T08:01:17.440Z,52.92
2023-03-27T08:02:17.408Z,53.05
2023-03-27T08:03:17.648Z,53.97
2023-03-27T08:04:17.490Z,53.36
2023-03-27T08:05:17.397Z,53.79
2023-03-27T08:06:17.448Z,53.69
2023-03-27T08:07:17.353Z,54.77
2023-03-27T08:08:17.437Z,55.57
2023-03-27T08:09:17.325Z,54.41
2023-03-27T08:10:17.323Z,53.79
2023-03-27T08:11:30.386Z,53.46
2023-03-27T08:12:17.290Z,52.54
2023-03-27T08:13:17.312Z,52.97
2023-03-27T08:14:17.272Z,53.28
2023-03-27T08:15:17.262Z,54.00
2023-03-27T08:16:17.272Z,53.66
2023-03-27T08:17:18.208Z,53.36
2023-03-27T08:18:17.243Z,52.51
2023-03-27T08:19:17.230Z,52.08
2023-03-27T08:20:17.210Z,52.59
2023-03-27T08:21:17.214Z,52.10
2023-03-27T08:22:22.196Z,52.69
2023-03-27T08:23:17.161Z,51.98
2023-03-27T08:24:17.156Z,52.20
2023-03-27T08:25:17.179Z,54.08
2023-03-27T08:26:17.130Z,51.64
2023-03-27T08:27:17.120Z,50.52
2023-03-27T08:28:17.100Z,50.48
2023-03-27T08:29:17.093Z,51.99
2023-03-27T08:30:17.420Z,53.77
2023-03-27T08:31:17.193Z,53.49
2023-03-27T08:32:17.069Z,52.02
2023-03-27T08:33:22.067Z,52.54
2023-03-27T08:34:17.059Z,51.74
2023-03-27T08:35:17.132Z,52.97
2023-03-27T08:36:17.018Z,51.84
2023-03-27T08:37:17.028Z,51.82
2023-03-27T08:38:25.982Z,51.39
2023-03-27T08:39:16.985Z,50.09
2023-03-27T08:40:16.987Z,50.70
2023-03-27T08:41:16.953Z,50.18
2023-03-27T08:42:18.925Z,49.75
2023-03-27T08:43:16.965Z,49.90
2023-03-27T08:44:21.957Z,49.95
2023-03-27T08:45:16.918Z,50.13
2023-03-27T08:46:16.928Z,51.02
2023-03-27T08:47:16.886Z,52.71
2023-03-27T08:48:16.876Z,54.66
2023-03-27T08:49:16.900Z,54.36
2023-03-27T08:50:16.864Z,53.51
2023-03-27T08:51:16.875Z,52.38
2023-03-27T08:52:16.840Z,53.87
2023-03-27T08:53:16.827Z,53.58
2023-03-27T08:54:16.820Z,54.30
2023-03-27T08:55:21.870Z,54.13
2023-03-27T08:56:16.809Z,55.69
2023-03-27T08:57:16.853Z,56.85
2023-03-27T08:58:16.773Z,56.65
2023-03-27T08:59:17.487Z,57.06
2023-03-27T09:00:16.750Z,55.87
2023-03-27T09:01:16.794Z,53.77
2023-03-27T09:02:16.768Z,53.92
2023-03-27T09:03:16.823Z,52.48
2023-03-27T09:04:16.703Z,53.85
2023-03-27T09:05:16.741Z,52.56
2023-03-27T09:06:21.777Z,50.82
2023-03-27T09:07:16.717Z,50.15
2023-03-27T09:08:16.648Z,50.28
2023-03-27T09:09:16.652Z,50.61
2023-03-27T09:10:16.646Z,50.46
2023-03-27T09:11:16.628Z,49.77
2023-03-27T09:12:16.607Z,48.19
2023-03-27T09:13:16.646Z,47.58
2023-03-27T09:14:16.593Z,48.17
2023-03-27T09:15:16.585Z,48.19
2023-03-27T09:16:16.599Z,48.80
2023-03-27T09:17:21.569Z,50.87
2023-03-27T09:18:16.535Z,51.72
2023-03-27T09:19:16.548Z,49.58
2023-03-27T09:20:16.515Z,50.86
2023-03-27T09:21:16.510Z,49.79
2023-03-27T09:22:16.520Z,49.56
2023-03-27T09:23:16.872Z,49.23
2023-03-27T09:24:16.471Z,48.28
2023-03-27T09:25:16.490Z,48.47
2023-03-27T09:26:16.454Z,47.55
2023-03-27T09:27:16.469Z,47.64
2023-03-27T09:28:21.453Z,48.72
2023-03-27T09:29:19.978Z,49.72
2023-03-27T09:30:16.425Z,48.82
2023-03-27T09:31:16.477Z,49.85
2023-03-27T09:32:16.382Z,49.87
2023-03-27T09:33:16.376Z,49.41
2023-03-27T09:34:16.360Z,48.26
2023-03-27T09:35:16.444Z,46.72
2023-03-27T09:36:16.342Z,47.55
2023-03-27T09:37:17.472Z,48.64
2023-03-27T09:38:16.329Z,49.46
2023-03-27T09:39:21.323Z,50.28
2023-03-27T09:40:16.289Z,49.69
2023-03-27T09:41:16.281Z,50.10
2023-03-27T09:42:16.268Z,50.92
2023-03-27T09:43:16.283Z,50.74
2023-03-27T09:44:16.252Z,51.37
2023-03-27T09:45:16.252Z,50.45
2023-03-27T09:46:16.270Z,50.56
2023-03-27T09:47:16.203Z,51.30
2023-03-27T09:48:16.207Z,50.68
2023-03-27T09:49:16.278Z,51.58
2023-03-27T09:50:21.220Z,50.61
2023-03-27T09:51:16.169Z,49.33
2023-03-27T09:52:16.151Z,48.49
2023-03-27T09:53:16.144Z,47.31
2023-03-27T09:54:16.147Z,47.63
2023-03-27T09:55:16.163Z,47.67
2023-03-27T09:56:16.114Z,48.10
2023-03-27T09:57:16.150Z,48.82
2023-03-27T09:58:16.096Z,48.54
2023-03-27T09:59:16.072Z,48.86
2023-03-27T10:00:16.097Z,49.09
2023-03-27T10:01:21.156Z,49.32
2023-03-27T10:02:16.038Z,50.06
2023-03-27T10:03:16.533Z,50.58
2023-03-27T10:04:16.084Z,52.25
2023-03-27T10:05:16.004Z,53.48
2023-03-27T10:06:16.000Z,56.29
2023-03-27T10:07:15.990Z,57.96
2023-03-27T10:08:15.970Z,60.43
2023-03-27T10:09:16.007Z,59.74
2023-03-27T10:10:16.037Z,59.84
2023-03-27T10:11:15.957Z,60.56
2023-03-27T10:12:20.966Z,60.35
2023-03-27T10:13:15.951Z,59.70
2023-03-27T10:14:15.982Z,58.59
2023-03-27T10:15:15.919Z,58.39
2023-03-27T10:16:15.932Z,56.90
2023-03-27T10:17:15.880Z,55.87
2023-03-27T10:18:15.857Z,54.21
2023-03-27T10:19:15.880Z,55.41
2023-03-27T10:20:15.979Z,54.87
2023-03-27T10:21:15.867Z,53.10
2023-03-27T10:22:15.813Z,51.26
2023-03-27T10:23:20.855Z,51.13
2023-03-27T10:24:15.797Z,52.05
2023-03-27T10:25:15.784Z,52.26
2023-03-27T10:26:15.811Z,51.44
2023-03-27T10:27:15.792Z,51.05
2023-03-27T10:28:15.788Z,51.48
2023-03-27T10:29:15.732Z,51.51
2023-03-27T10:30:15.734Z,49.97
2023-03-27T10:31:15.735Z,49.79
2023-03-27T10:32:15.733Z,49.48
2023-03-27T10:33:15.757Z,51.23
2023-03-27T10:34:20.723Z,51.02
2023-03-27T10:35:15.672Z,50.71
2023-03-27T10:36:15.668Z,50.51
2023-03-27T10:37:15.659Z,50.40
2023-03-27T10:38:15.641Z,49.60
2023-03-27T10:39:15.619Z,50.43
2023-03-27T10:40:15.616Z,50.22
2023-03-27T10:41:15.597Z,50.12
2023-03-27T10:42:15.621Z,50.14
2023-03-27T10:43:15.583Z,49.91
2023-03-27T10:44:15.563Z,49.74
2023-03-27T10:45:20.588Z,46.93
2023-03-27T10:46:15.689Z,46.68
2023-03-27T10:47:15.540Z,46.58
2023-03-27T10:48:15.517Z,46.56
2023-03-27T10:49:17.425Z,45.80
2023-03-27T10:50:15.569Z,44.59
2023-03-27T10:51:15.481Z,44.73
2023-03-27T10:52:15.510Z,44.76
2023-03-27T10:53:15.545Z,45.09
2023-03-27T10:54:15.500Z,47.44
2023-03-27T10:55:15.437Z,46.75
2023-03-27T10:56:20.454Z,46.67
2023-03-27T10:57:15.506Z,46.77
2023-03-27T10:58:15.467Z,47.49
2023-03-27T10:59:15.440Z,48.54
2023-03-27T11:00:15.406Z,48.04
2023-03-27T11:01:15.410Z,48.86
2023-03-27T11:02:15.383Z,49.71
2023-03-27T11:03:15.388Z,50.22
2023-03-27T11:04:15.392Z,50.04
2023-03-27T11:05:15.412Z,50.56
2023-03-27T11:06:15.369Z,50.45
2023-03-27T11:07:20.366Z,50.12
2023-03-27T11:08:15.293Z,50.45
2023-03-27T11:09:15.285Z,49.22
2023-03-27T11:10:15.267Z,49.94
2023-03-27T11:11:15.348Z,50.04
2023-03-27T11:12:15.263Z,49.63
2023-03-27T11:13:15.238Z,49.94
2023-03-27T11:14:15.278Z,49.84
2023-03-27T11:15:15.207Z,50.48
2023-03-27T11:16:15.200Z,50.89
2023-03-27T11:17:15.216Z,51.20
2023-03-27T11:18:20.191Z,52.84
2023-03-27T11:19:15.272Z,53.56
2023-03-27T11:20:15.150Z,53.58
2023-03-27T11:21:15.138Z,54.20
2023-03-27T11:22:15.138Z,55.74
2023-03-27T11:23:15.172Z,56.67
2023-03-27T11:24:15.101Z,56.80
2023-03-27T11:25:15.107Z,57.31
2023-03-27T11:26:15.093Z,58.01
2023-03-27T11:27:15.071Z,57.36
2023-03-27T11:28:15.090Z,57.85
2023-03-27T11:29:20.122Z,56.79
2023-03-27T11:30:15.078Z,56.34
2023-03-27T11:31:15.120Z,55.21
2023-03-27T11:32:15.039Z,55.62
2023-03-27T11:33:15.018Z,55.49
2023-03-27T11:34:14.994Z,55.26
2023-03-27T11:35:15.005Z,53.36
2023-03-27T11:36:15.001Z,53.23
2023-03-27T11:37:14.973Z,52.59
2023-03-27T11:38:14.965Z,51.95
2023-03-27T11:39:14.938Z,51.06
2023-03-27T11:40:19.943Z,50.52
2023-03-27T11:41:15.604Z,49.73
2023-03-27T11:42:14.896Z,49.75
2023-03-27T11:43:14.900Z,49.98
2023-03-27T11:44:14.905Z,50.06
2023-03-27T11:45:14.883Z,48.63
2023-03-27T11:46:14.876Z,47.83
2023-03-27T11:47:14.843Z,49.34
2023-03-27T11:48:14.954Z,49.44
2023-03-27T11:49:14.822Z,49.30
2023-03-27T11:50:14.830Z,49.89
2023-03-27T11:51:19.823Z,48.56
2023-03-27T11:52:14.794Z,48.58
2023-03-27T11:53:14.800Z,47.85
2023-03-27T11:54:14.802Z,48.58
2023-03-27T11:55:14.767Z,49.44
2023-03-27T11:56:14.740Z,50.90
2023-03-27T11:57:14.766Z,51.13
2023-03-27T11:58:14.734Z,51.69
2023-03-27T11:59:14.712Z,52.59
2023-03-27T12:00:14.750Z,52.03
2023-03-27T12:01:17.214Z,51.62
2023-03-27T12:02:19.749Z,51.51
2023-03-27T12:03:14.781Z,49.32
2023-03-27T12:04:14.711Z,48.25
2023-03-27T12:05:14.654Z,47.64
2023-03-27T12:06:14.709Z,46.47
2023-03-27T12:07:15.522Z,48.10
2023-03-27T12:08:14.616Z,46.55
2023-03-27T12:09:14.595Z,46.02
2023-03-27T12:10:14.587Z,44.61
2023-03-27T12:11:14.577Z,45.29
2023-03-27T12:12:14.580Z,46.00
2023-03-27T12:13:19.588Z,45.25
2023-03-27T12:14:18.321Z,45.10
2023-03-27T12:15:14.538Z,44.55
2023-03-27T12:16:14.554Z,42.77
2023-03-27T12:17:14.538Z,43.02
2023-03-27T12:18:14.533Z,44.08
2023-03-27T12:19:27.613Z,44.98
2023-03-27T12:20:14.477Z,44.65
2023-03-27T12:21:14.456Z,43.79
2023-03-27T12:22:23.505Z,42.13
2023-03-27T12:23:14.452Z,42.02
2023-03-27T12:24:19.506Z,41.96
2023-03-27T12:25:14.408Z,43.77
2023-03-27T12:26:14.409Z,42.10
2023-03-27T12:27:14.395Z,40.05
2023-03-27T12:28:22.668Z,40.77
2023-03-27T12:29:23.413Z,41.23
2023-03-27T12:30:14.371Z,41.55
2023-03-27T12:31:14.348Z,42.94
2023-03-27T12:32:14.416Z,42.68
2023-03-27T12:33:14.399Z,44.31
2023-03-27T12:34:14.310Z,44.02
2023-03-27T12:35:21.595Z,43.79
2023-03-27T12:36:14.301Z,44.67
2023-03-27T12:37:14.277Z,44.10
2023-03-27T12:38:14.264Z,44.78
2023-03-27T12:39:14.261Z,45.61
2023-03-27T12:40:14.246Z,46.34
2023-03-27T12:41:14.234Z,47.52
2023-03-27T12:42:14.236Z,47.23
2023-03-27T12:43:14.206Z,49.75
2023-03-27T12:44:14.204Z,51.31
2023-03-27T12:45:14.186Z,52.36
2023-03-27T12:46:19.325Z,54.66
2023-03-27T12:47:14.168Z,56.64
2023-03-27T12:48:14.163Z,57.59
2023-03-27T12:49:14.194Z,58.13
2023-03-27T12:50:14.147Z,59.88
2023-03-27T12:51:14.130Z,61.35
2023-03-27T12:52:15.135Z,61.44
2023-03-27T12:53:14.101Z,60.19